createdAt,value
2023-01-13T00:00:51.392Z,59.46
2023-01-13T00:03:24.029Z,59.53
2023-01-13T00:05:59.258Z,59.17
2023-01-13T00:08:32.603Z,59.80
2023-01-13T00:11:05.448Z,59.48
2023-01-13T00:13:38.046Z,59.94
2023-01-13T00:16:16.775Z,58.89
2023-01-13T00:18:49.903Z,58.76
2023-01-13T00:21:24.766Z,59.87
2023-01-13T00:23:57.353Z,59.72
2023-01-13T00:26:30.003Z,59.54
2023-01-13T00:29:03.638Z,60.00
2023-01-13T00:31:36.313Z,59.51
2023-01-13T00:34:09.163Z,59.67
2023-01-13T00:36:41.782Z,59.89
2023-01-13T00:39:14.367Z,60.47
2023-01-13T00:41:46.978Z,60.69
2023-01-13T00:44:19.582Z,60.71
2023-01-13T00:46:52.244Z,60.56
2023-01-13T00:49:25.002Z,61.32
2023-01-13T00:51:57.624Z,59.54
2023-01-13T00:54:30.243Z,60.48
2023-01-13T00:57:04.554Z,60.45
2023-01-13T00:59:37.176Z,60.14
2023-01-13T01:02:10.974Z,60.59
2023-01-13T01:04:43.672Z,60.87
2023-01-13T01:07:16.299Z,59.85
2023-01-13T01:09:49.759Z,61.10
2023-01-13T01:12:22.392Z,61.13
2023-01-13T01:14:54.982Z,60.83
2023-01-13T01:17:28.196Z,61.60
2023-01-13T01:20:00.804Z,61.96
2023-01-13T01:22:33.443Z,61.84
2023-01-13T01:25:06.574Z,61.46
2023-01-13T01:27:39.181Z,60.62
2023-01-13T01:30:12.370Z,61.73
2023-01-13T01:32:45.003Z,61.79
2023-01-13T01:35:17.627Z,61.70
2023-01-13T01:37:50.766Z,61.83
2023-01-13T01:40:23.380Z,61.24
2023-01-13T01:42:56.023Z,61.51
2023-01-13T01:45:30.705Z,61.47
2023-01-13T01:48:07.123Z,62.28
2023-01-13T01:50:40.595Z,61.64
2023-01-13T01:53:19.291Z,60.67
2023-01-13T01:55:52.181Z,60.50
2023-01-13T01:58:30.851Z,60.93
2023-01-13T02:01:03.640Z,60.63
2023-01-13T02:03:44.061Z,60.99
2023-01-13T02:06:17.487Z,61.54
2023-01-13T02:08:52.079Z,61.52
2023-01-13T02:11:33.952Z,61.67
2023-01-13T02:14:06.609Z,61.22
2023-01-13T02:16:48.332Z,62.60
2023-01-13T02:19:47.623Z,62.22
2023-01-13T02:22:47.012Z,62.39
2023-01-13T02:25:38.301Z,62.49
2023-01-13T02:28:48.524Z,62.88
2023-01-13T02:31:21.594Z,62.24
2023-01-13T02:34:12.709Z,62.71
2023-01-13T02:37:07.187Z,62.98
2023-01-13T02:39:45.628Z,62.18
2023-01-13T02:42:26.991Z,63.50
2023-01-13T02:45:26.198Z,62.71
2023-01-13T02:48:04.772Z,62.40
2023-01-13T02:50:59.640Z,62.95
2023-01-13T02:53:41.456Z,63.84
2023-01-13T02:56:16.474Z,63.94
2023-01-13T02:58:50.301Z,64.03
2023-01-13T03:01:24.142Z,66.03
2023-01-13T03:03:56.894Z,65.18
2023-01-13T03:07:06.664Z,65.42
2023-01-13T03:09:56.750Z,66.30
2023-01-13T03:12:50.279Z,65.01
2023-01-13T03:15:43.601Z,66.65
2023-01-13T03:18:28.236Z,68.50
2023-01-13T03:21:19.356Z,68.87
2023-01-13T03:23:59.750Z,69.03
2023-01-13T03:26:51.064Z,70.82
2023-01-13T03:29:39.549Z,70.51
2023-01-13T03:32:21.154Z,70.69
2023-01-13T03:35:03.048Z,70.51
2023-01-13T03:37:42.009Z,70.76
2023-01-13T03:40:22.338Z,70.30
2023-01-13T03:43:04.214Z,70.51
2023-01-13T03:45:41.546Z,70.40
2023-01-13T03:48:19.624Z,70.17
2023-01-13T03:50:58.188Z,70.78
2023-01-13T03:53:38.854Z,70.40
2023-01-13T03:56:21.496Z,71.13
2023-01-13T03:58:55.008Z,70.45
2023-01-13T04:01:44.710Z,70.48
2023-01-13T04:04:26.493Z,72.06
2023-01-13T04:07:19.645Z,72.17
2023-01-13T04:10:03.663Z,72.22
2023-01-13T04:12:56.091Z,72.05
2023-01-13T04:15:41.149Z,72.98
2023-01-13T04:18:26.850Z,74.13
2023-01-13T04:21:01.660Z,74.46
2023-01-13T04:23:34.463Z,74.13
2023-01-13T04:26:07.070Z,75.68
2023-01-13T04:28:39.728Z,78.41
2023-01-13T04:31:12.418Z,78.36
2023-01-13T04:33:45.072Z,78.79
2023-01-13T04:36:17.685Z,79.05
2023-01-13T04:38:50.374Z,79.68
2023-01-13T04:41:23.013Z,79.11
2023-01-13T04:43:55.591Z,78.77
2023-01-13T04:46:28.235Z,78.68
2023-01-13T04:49:00.855Z,77.82
2023-01-13T04:51:33.482Z,77.48
2023-01-13T04:54:06.105Z,78.68
2023-01-13T04:56:38.725Z,78.52
2023-01-13T04:59:11.794Z,78.38
2023-01-13T05:01:44.509Z,78.33
2023-01-13T05:04:17.163Z,77.46
2023-01-13T05:06:49.816Z,79.11
2023-01-13T05:09:22.436Z,79.37
2023-01-13T05:11:55.059Z,78.83
2023-01-13T05:14:27.711Z,79.24
2023-01-13T05:17:00.654Z,78.49
2023-01-13T05:19:36.245Z,78.15
2023-01-13T05:22:08.841Z,78.98
2023-01-13T05:24:42.087Z,79.40
2023-01-13T05:27:14.742Z,79.41
2023-01-13T05:29:47.368Z,79.15
2023-01-13T05:32:20.258Z,79.99
2023-01-13T05:34:52.955Z,80.17
2023-01-13T05:37:25.571Z,80.09
2023-01-13T05:39:58.196Z,79.58
2023-01-13T05:42:30.790Z,80.51
2023-01-13T05:45:04.112Z,80.59
2023-01-13T05:47:37.081Z,81.20
2023-01-13T05:50:10.378Z,80.78
2023-01-13T05:52:43.282Z,81.50
2023-01-13T05:55:15.976Z,80.37
2023-01-13T05:57:48.546Z,80.56
2023-01-13T06:00:21.350Z,81.31
2023-01-13T06:02:54.028Z,81.41
2023-01-13T06:05:26.680Z,81.21
2023-01-13T06:08:00.252Z,81.09
2023-01-13T06:10:33.869Z,81.49
2023-01-13T06:13:07.239Z,81.93
2023-01-13T06:15:39.911Z,81.58
2023-01-13T06:18:12.503Z,81.75
2023-01-13T06:20:47.115Z,81.31
2023-01-13T06:23:20.088Z,81.14
2023-01-13T06:26:03.636Z,80.91
2023-01-13T06:28:36.527Z,81.27
2023-01-13T06:31:11.148Z,80.71
2023-01-13T06:33:53.347Z,81.26
2023-01-13T06:36:41.736Z,81.42
2023-01-13T06:39:21.001Z,81.17
2023-01-13T06:41:54.762Z,80.88
2023-01-13T06:44:28.935Z,80.65
2023-01-13T06:47:01.829Z,81.72
2023-01-13T06:49:34.504Z,82.58
2023-01-13T06:52:07.110Z,82.30
2023-01-13T06:54:39.770Z,82.60
2023-01-13T06:57:12.554Z,82.35
2023-01-13T06:59:45.143Z,82.64
2023-01-13T07:02:17.848Z,83.10
2023-01-13T07:04:50.558Z,82.39
2023-01-13T07:07:23.196Z,82.71
2023-01-13T07:09:55.764Z,82.69
2023-01-13T07:12:30.887Z,82.72
2023-01-13T07:15:03.752Z,82.98
2023-01-13T07:17:36.423Z,82.82
2023-01-13T07:20:09.864Z,82.59
2023-01-13T07:22:43.051Z,80.77
2023-01-13T07:25:15.723Z,81.38
2023-01-13T07:27:48.393Z,82.96
2023-01-13T07:30:20.990Z,83.11
2023-01-13T07:32:53.558Z,83.71
2023-01-13T07:35:26.165Z,82.63
2023-01-13T07:37:58.784Z,82.59
2023-01-13T07:40:31.489Z,82.38
2023-01-13T07:43:04.067Z,82.62
2023-01-13T07:45:36.716Z,82.80
2023-01-13T07:48:09.864Z,82.21
2023-01-13T07:50:44.159Z,82.69
2023-01-13T07:53:16.921Z,82.80
2023-01-13T07:55:49.541Z,82.03
2023-01-13T07:58:22.191Z,82.18
2023-01-13T08:00:55.965Z,81.71
2023-01-13T08:03:28.632Z,81.03
2023-01-13T08:06:02.351Z,81.57
2023-01-13T08:08:35.434Z,81.99
2023-01-13T08:11:08.813Z,82.64
2023-01-13T08:13:41.424Z,81.71
2023-01-13T08:16:15.568Z,81.14
2023-01-13T08:18:48.274Z,82.22
2023-01-13T08:21:20.939Z,80.63
2023-01-13T08:23:53.562Z,81.75
2023-01-13T08:26:26.221Z,81.94
2023-01-13T08:28:58.846Z,81.88
2023-01-13T08:31:31.452Z,81.95
2023-01-13T08:34:04.040Z,81.98
2023-01-13T08:36:36.741Z,81.60
2023-01-13T08:39:09.336Z,81.74
2023-01-13T08:41:43.480Z,81.83
2023-01-13T08:44:16.047Z,82.55
2023-01-13T08:46:48.731Z,82.54
2023-01-13T08:49:22.750Z,82.74
2023-01-13T08:51:55.389Z,83.01
2023-01-13T08:54:28.000Z,82.77
2023-01-13T08:57:00.670Z,83.10
2023-01-13T08:59:34.144Z,82.68
2023-01-13T09:02:14.492Z,81.96
2023-01-13T09:04:47.400Z,81.59
2023-01-13T09:07:20.284Z,82.92
2023-01-13T09:09:52.934Z,82.52
2023-01-13T09:12:25.517Z,82.50
2023-01-13T09:14:58.482Z,82.59
2023-01-13T09:17:31.066Z,82.03
2023-01-13T09:20:04.489Z,82.10
2023-01-13T09:22:37.083Z,82.10
2023-01-13T09:25:10.024Z,81.88
2023-01-13T09:27:42.668Z,81.57
2023-01-13T09:30:15.401Z,79.49
2023-01-13T09:32:48.025Z,75.22
2023-01-13T09:35:20.599Z,75.87
2023-01-13T09:37:54.005Z,76.62
2023-01-13T09:40:27.034Z,77.42
2023-01-13T09:43:16.209Z,79.61
2023-01-13T09:46:01.637Z,79.17
2023-01-13T09:48:39.557Z,79.76
2023-01-13T09:51:52.111Z,80.57
2023-01-13T09:54:44.302Z,78.58
2023-01-13T09:57:20.290Z,78.38
2023-01-13T09:59:52.900Z,76.14
2023-01-13T10:02:49.782Z,75.63
2023-01-13T10:05:48.573Z,74.98
2023-01-13T10:08:43.238Z,74.95
2023-01-13T10:11:22.000Z,75.58
2023-01-13T10:14:01.591Z,76.24
2023-01-13T10:17:01.858Z,76.17
2023-01-13T10:19:46.215Z,75.87
2023-01-13T10:22:25.373Z,75.61
2023-01-13T10:25:07.071Z,76.60
2023-01-13T10:27:41.225Z,76.72
2023-01-13T10:30:29.163Z,77.21
2023-01-13T10:33:16.627Z,77.14
2023-01-13T10:36:12.425Z,78.10
2023-01-13T10:38:47.706Z,79.15
2023-01-13T10:41:27.648Z,78.65
2023-01-13T10:44:09.353Z,77.92
2023-01-13T10:46:53.751Z,77.55
2023-01-13T10:49:36.306Z,70.45
2023-01-13T10:52:27.269Z,55.64
2023-01-13T10:55:00.709Z,54.42
2023-01-13T10:57:36.852Z,60.10
2023-01-13T11:00:26.966Z,65.11
2023-01-13T11:03:16.259Z,60.51
2023-01-13T11:06:00.273Z,63.49
2023-01-13T11:08:44.898Z,67.99
2023-01-13T11:11:43.464Z,68.68
2023-01-13T11:14:39.907Z,68.05
2023-01-13T11:17:49.146Z,66.09
2023-01-13T11:20:26.840Z,60.59
2023-01-13T11:23:19.796Z,63.54
2023-01-13T11:26:16.671Z,53.21
2023-01-13T11:29:17.560Z,64.57
2023-01-13T11:31:58.670Z,65.88
2023-01-13T11:34:39.110Z,70.12
2023-01-13T11:37:23.834Z,72.27
2023-01-13T11:40:27.319Z,73.23
2023-01-13T11:43:24.265Z,72.65
2023-01-13T11:46:00.149Z,71.07
2023-01-13T11:48:40.249Z,68.64
2023-01-13T11:51:24.285Z,70.05
2023-01-13T11:54:16.332Z,71.00
2023-01-13T11:57:06.922Z,70.24
2023-01-13T11:59:54.732Z,70.14
2023-01-13T12:02:30.233Z,70.65
2023-01-13T12:05:22.397Z,61.57
2023-01-13T12:08:13.602Z,55.03
2023-01-13T12:11:02.784Z,50.83
2023-01-13T12:14:24.673Z,46.83
2023-01-13T12:17:01.136Z,48.26
2023-01-13T12:19:33.971Z,49.66
2023-01-13T12:22:21.060Z,51.17
2023-01-13T12:25:20.477Z,60.59
2023-01-13T12:28:06.502Z,48.39
2023-01-13T12:30:57.812Z,59.62
2023-01-13T12:33:52.303Z,63.84
2023-01-13T12:36:46.114Z,65.50
2023-01-13T12:39:48.339Z,65.12
2023-01-13T12:42:45.973Z,48.80
2023-01-13T12:45:23.747Z,50.10
2023-01-13T12:47:57.592Z,56.44
2023-01-13T12:50:33.216Z,65.49
2023-01-13T12:53:34.924Z,66.87
2023-01-13T12:56:40.372Z,70.50
2023-01-13T12:59:19.888Z,71.11
2023-01-13T13:02:13.163Z,70.20
2023-01-13T13:04:49.860Z,69.30
2023-01-13T13:07:38.685Z,68.21
2023-01-13T13:10:23.767Z,68.46
2023-01-13T13:13:02.599Z,69.50
2023-01-13T13:15:36.251Z,66.06
2023-01-13T13:18:17.914Z,65.32
2023-01-13T13:21:08.868Z,61.52
2023-01-13T13:23:53.507Z,62.82
2023-01-13T13:26:41.528Z,61.48
2023-01-13T13:29:49.480Z,61.97
2023-01-13T13:32:39.432Z,60.53
2023-01-13T13:35:21.093Z,60.32
2023-01-13T13:38:25.075Z,58.44
2023-01-13T13:40:57.993Z,57.16
2023-01-13T13:43:40.982Z,55.94
2023-01-13T13:46:29.212Z,55.67
2023-01-13T13:49:01.827Z,53.56
2023-01-13T13:51:45.824Z,51.94
2023-01-13T13:54:22.515Z,52.11
2023-01-13T13:56:55.621Z,57.32
2023-01-13T13:59:29.088Z,60.89
2023-01-13T14:02:03.697Z,62.05
2023-01-13T14:04:38.223Z,53.69
2023-01-13T14:07:21.920Z,51.75
2023-01-13T14:09:55.055Z,48.78
2023-01-13T14:12:27.799Z,48.57
2023-01-13T14:15:00.419Z,47.91
2023-01-13T14:17:34.733Z,59.01
2023-01-13T14:20:18.228Z,56.31
2023-01-13T14:22:53.777Z,54.32
2023-01-13T14:25:36.665Z,55.91
2023-01-13T14:28:26.681Z,55.47
2023-01-13T14:31:00.949Z,58.22
2023-01-13T14:33:39.374Z,58.63
2023-01-13T14:36:16.643Z,64.46
2023-01-13T14:39:09.092Z,67.28
2023-01-13T14:41:41.624Z,69.45
2023-01-13T14:44:33.300Z,69.20
2023-01-13T14:47:28.058Z,70.83
2023-01-13T14:50:06.015Z,71.95
2023-01-13T14:52:50.974Z,72.80
2023-01-13T14:55:36.842Z,72.38
2023-01-13T14:58:21.486Z,71.11
2023-01-13T15:01:29.569Z,71.76
2023-01-13T15:04:31.292Z,72.23
2023-01-13T15:07:04.482Z,72.62
2023-01-13T15:09:42.534Z,72.53
2023-01-13T15:12:40.648Z,72.34
2023-01-13T15:15:29.465Z,70.82
2023-01-13T15:18:12.265Z,70.58
2023-01-13T15:20:45.476Z,69.92
2023-01-13T15:23:20.030Z,70.20
2023-01-13T15:25:52.790Z,68.33
2023-01-13T15:28:26.998Z,68.25
2023-01-13T15:30:59.579Z,67.81
2023-01-13T15:33:32.205Z,67.57
2023-01-13T15:36:16.537Z,69.37
2023-01-13T15:38:49.820Z,67.07
2023-01-13T15:41:22.523Z,68.77
2023-01-13T15:43:55.131Z,68.96
2023-01-13T15:46:27.863Z,66.69
2023-01-13T15:49:04.843Z,64.28
2023-01-13T15:51:37.391Z,65.13
2023-01-13T15:54:09.965Z,64.41
2023-01-13T15:56:42.721Z,62.75
2023-01-13T15:59:24.067Z,62.81
2023-01-13T16:01:56.637Z,61.67
2023-01-13T16:04:29.200Z,59.60
2023-01-13T16:07:01.833Z,59.51
2023-01-13T16:09:34.437Z,59.55
2023-01-13T16:12:07.137Z,59.22
2023-01-13T16:14:40.274Z,59.35
2023-01-13T16:17:14.776Z,58.91
2023-01-13T16:19:48.034Z,59.41
2023-01-13T16:22:20.887Z,58.96
2023-01-13T16:24:53.588Z,59.69
2023-01-13T16:27:26.233Z,61.05
2023-01-13T16:29:58.884Z,61.35
2023-01-13T16:32:31.481Z,62.05
2023-01-13T16:35:04.289Z,60.65
2023-01-13T16:37:38.079Z,59.12
2023-01-13T16:40:22.839Z,59.21
2023-01-13T16:42:56.827Z,59.00
2023-01-13T16:45:33.476Z,60.39
2023-01-13T16:48:06.159Z,60.86
2023-01-13T16:50:42.003Z,61.89
2023-01-13T16:53:14.579Z,61.70
2023-01-13T16:55:47.164Z,61.69
2023-01-13T16:58:20.709Z,61.42
2023-01-13T17:00:53.354Z,61.71
2023-01-13T17:03:26.036Z,61.11
2023-01-13T17:06:01.878Z,60.60
2023-01-13T17:08:34.490Z,60.58
2023-01-13T17:11:07.077Z,61.10
2023-01-13T17:13:41.041Z,61.17
2023-01-13T17:16:22.220Z,61.28
2023-01-13T17:18:54.885Z,60.99
2023-01-13T17:21:27.565Z,60.13
2023-01-13T17:24:00.178Z,60.56
2023-01-13T17:26:43.201Z,59.96
2023-01-13T17:29:22.348Z,59.32
2023-01-13T17:31:55.342Z,59.22
2023-01-13T17:34:28.263Z,59.34
2023-01-13T17:37:00.917Z,60.42
2023-01-13T17:39:33.482Z,58.94
2023-01-13T17:42:06.930Z,59.42
2023-01-13T17:44:39.796Z,58.88
2023-01-13T17:47:12.553Z,58.76
2023-01-13T17:49:45.189Z,58.79
2023-01-13T17:52:17.771Z,58.17
2023-01-13T17:54:50.364Z,57.18
2023-01-13T17:57:25.921Z,56.63
2023-01-13T17:59:58.676Z,55.27
2023-01-13T18:02:31.408Z,55.03
2023-01-13T18:05:06.726Z,54.32
2023-01-13T18:07:39.653Z,54.28
2023-01-13T18:10:12.231Z,53.65
2023-01-13T18:12:44.839Z,53.29
2023-01-13T18:15:17.443Z,53.50
2023-01-13T18:17:50.258Z,52.62
2023-01-13T18:20:23.239Z,52.98
2023-01-13T18:22:55.869Z,53.67
2023-01-13T18:25:28.440Z,53.30
2023-01-13T18:28:01.039Z,52.99
2023-01-13T18:30:33.589Z,52.64
2023-01-13T18:33:06.249Z,53.17
2023-01-13T18:35:39.342Z,54.24
2023-01-13T18:38:11.947Z,52.95
2023-01-13T18:40:44.521Z,52.79
2023-01-13T18:43:17.201Z,52.78
2023-01-13T18:45:50.928Z,52.86
2023-01-13T18:48:23.649Z,53.21
2023-01-13T18:50:56.242Z,52.67
2023-01-13T18:53:29.221Z,52.73
2023-01-13T18:56:04.168Z,52.80
2023-01-13T18:58:39.461Z,53.79
2023-01-13T19:01:12.493Z,52.54
2023-01-13T19:03:45.304Z,53.97
2023-01-13T19:06:17.991Z,55.08
2023-01-13T19:08:50.876Z,56.17
2023-01-13T19:11:25.217Z,57.00
2023-01-13T19:13:57.783Z,56.35
2023-01-13T19:16:30.491Z,55.25
2023-01-13T19:19:03.166Z,55.52
2023-01-13T19:21:35.763Z,55.21
2023-01-13T19:24:08.557Z,57.13
2023-01-13T19:26:41.116Z,56.40
2023-01-13T19:29:13.724Z,57.47
2023-01-13T19:31:46.602Z,61.30
2023-01-13T19:34:20.184Z,64.73
2023-01-13T19:36:53.563Z,65.03
2023-01-13T19:39:26.468Z,66.28
2023-01-13T19:41:59.293Z,66.02
2023-01-13T19:44:31.908Z,65.05
2023-01-13T19:47:04.687Z,65.12
2023-01-13T19:49:37.306Z,65.89
2023-01-13T19:52:11.451Z,63.82
2023-01-13T19:54:45.312Z,63.89
2023-01-13T19:57:26.566Z,64.23
2023-01-13T19:59:59.183Z,64.97
2023-01-13T20:02:33.318Z,62.56
2023-01-13T20:05:07.284Z,63.25
2023-01-13T20:07:39.907Z,63.65
2023-01-13T20:10:12.719Z,62.52
2023-01-13T20:12:45.392Z,61.24
2023-01-13T20:15:18.019Z,61.90
2023-01-13T20:17:50.975Z,60.81
2023-01-13T20:20:24.805Z,62.03
2023-01-13T20:22:57.506Z,62.58
2023-01-13T20:25:30.178Z,63.34
2023-01-13T20:28:03.055Z,61.63
2023-01-13T20:30:35.722Z,63.26
2023-01-13T20:33:08.386Z,63.85
2023-01-13T20:35:42.080Z,64.51
2023-01-13T20:38:14.771Z,63.91
2023-01-13T20:40:47.480Z,65.80
2023-01-13T20:43:20.167Z,66.96
2023-01-13T20:45:53.559Z,67.39
2023-01-13T20:48:26.232Z,67.50
2023-01-13T20:50:58.933Z,67.89
2023-01-13T20:53:31.615Z,67.14
2023-01-13T20:56:08.641Z,68.17
2023-01-13T20:58:41.252Z,69.08
2023-01-13T21:01:14.088Z,67.00
2023-01-13T21:03:46.901Z,65.84
2023-01-13T21:06:19.565Z,67.71
2023-01-13T21:08:53.204Z,69.97
2023-01-13T21:11:28.162Z,70.72
2023-01-13T21:14:00.910Z,70.63
2023-01-13T21:16:33.608Z,71.36
2023-01-13T21:19:06.268Z,71.96
2023-01-13T21:21:38.888Z,72.48
2023-01-13T21:24:11.587Z,70.90
2023-01-13T21:26:44.321Z,68.71
2023-01-13T21:29:16.975Z,69.10
2023-01-13T21:31:49.767Z,68.84
2023-01-13T21:34:22.455Z,67.11
2023-01-13T21:36:55.144Z,68.05
2023-01-13T21:39:27.905Z,65.71
2023-01-13T21:42:00.619Z,66.28
2023-01-13T21:44:33.338Z,66.74
2023-01-13T21:47:18.393Z,68.25
2023-01-13T21:49:51.147Z,65.61
2023-01-13T21:52:23.782Z,65.86
2023-01-13T21:54:56.530Z,65.15
2023-01-13T21:57:29.158Z,65.44
2023-01-13T22:00:01.914Z,67.14
2023-01-13T22:02:34.679Z,66.02
2023-01-13T22:05:09.329Z,66.11
2023-01-13T22:07:42.316Z,67.74
2023-01-13T22:10:26.213Z,67.68
2023-01-13T22:13:01.650Z,67.51
2023-01-13T22:15:34.296Z,67.08
2023-01-13T22:18:07.100Z,67.09
2023-01-13T22:20:39.749Z,66.18
2023-01-13T22:23:12.474Z,64.86
2023-01-13T22:25:45.370Z,66.04
2023-01-13T22:28:18.020Z,65.36
2023-01-13T22:30:50.685Z,66.63
2023-01-13T22:33:23.342Z,67.19
2023-01-13T22:35:56.126Z,65.57
2023-01-13T22:38:29.046Z,64.79
2023-01-13T22:41:05.380Z,67.70
2023-01-13T22:43:38.408Z,68.21
2023-01-13T22:46:12.714Z,68.15
2023-01-13T22:48:45.466Z,68.77
2023-01-13T22:51:18.095Z,68.22
2023-01-13T22:53:50.732Z,67.71
2023-01-13T22:56:25.203Z,68.32
2023-01-13T22:59:00.867Z,68.65
2023-01-13T23:01:35.066Z,68.48
2023-01-13T23:04:07.961Z,68.06
2023-01-13T23:06:40.858Z,67.51
2023-01-13T23:09:13.540Z,67.95
2023-01-13T23:11:47.858Z,68.25
2023-01-13T23:14:20.588Z,68.10
2023-01-13T23:16:53.396Z,68.26
2023-01-13T23:19:26.104Z,67.93
2023-01-13T23:21:58.775Z,68.61
2023-01-13T23:24:31.477Z,68.45
2023-01-13T23:27:04.140Z,68.97
2023-01-13T23:29:36.799Z,69.46
2023-01-13T23:32:09.417Z,68.60
2023-01-13T23:34:42.064Z,69.73
2023-01-13T23:37:14.683Z,68.34
2023-01-13T23:39:47.415Z,68.00
2023-01-13T23:42:20.181Z,68.88
2023-01-13T23:44:52.782Z,69.68
2023-01-13T23:47:25.435Z,70.74
2023-01-13T23:49:58.115Z,69.23
2023-01-13T23:52:30.769Z,69.76
2023-01-13T23:55:03.618Z,68.82
2023-01-13T23:57:36.275Z,68.26
